createdAt,value
2019-03-19T00:00:32.105Z,2.9
2019-03-19T00:05:19.071Z,2.8
2019-03-19T00:10:06.779Z,3.1
2019-03-19T00:14:54.194Z,3.4
2019-03-19T00:22:33.236Z,2.8
2019-03-19T00:27:20.127Z,3.2
2019-03-19T00:32:06.927Z,3.3
2019-03-19T00:36:54.489Z,3.6
2019-03-19T00:42:47.132Z,2.1
2019-03-19T00:47:36.610Z,2.6
2019-03-19T00:52:23.909Z,2.8
2019-03-19T00:57:10.777Z,2
2019-03-19T01:03:47.355Z,1.9
2019-03-19T01:08:34.359Z,2
2019-03-19T01:13:22.113Z,2.6
2019-03-19T01:18:09.480Z,2.4
2019-03-19T01:23:59.297Z,2.1
2019-03-19T01:28:48.367Z,2.1
2019-03-19T01:33:37.624Z,2.2
2019-03-19T01:38:25.286Z,2.4
2019-03-19T01:45:17.265Z,2.5
2019-03-19T01:50:04.486Z,2.2
2019-03-19T01:54:51.500Z,1.8
2019-03-19T01:59:39.327Z,2.7
2019-03-19T02:07:50.694Z,2.6
2019-03-19T02:12:38.629Z,2.1
2019-03-19T02:17:25.578Z,2.5
2019-03-19T02:22:13.066Z,2.7
2019-03-19T02:28:52.646Z,2.3
2019-03-19T02:33:39.485Z,2.3
2019-03-19T02:38:26.848Z,2.1
2019-03-19T02:43:13.840Z,2.9
2019-03-19T02:52:11.788Z,2.5
2019-03-19T02:56:58.995Z,3
2019-03-19T03:01:46.095Z,2.8
2019-03-19T03:06:33.602Z,2.4
2019-03-19T03:11:21.177Z,2.7
2019-03-19T03:16:08.287Z,2.3
2019-03-19T03:20:55.108Z,2.9
2019-03-19T03:25:42.341Z,3
2019-03-19T03:32:20.051Z,2.9
2019-03-19T03:37:07.460Z,2.5
2019-03-19T03:41:54.846Z,2.6
2019-03-19T03:46:41.769Z,3.4
2019-03-19T03:53:18.680Z,2.4
2019-03-19T03:58:06.648Z,2.6
2019-03-19T04:02:54.761Z,3
2019-03-19T04:07:42.089Z,3.3
2019-03-19T04:13:48.976Z,3.6
2019-03-19T04:18:37.003Z,2.8
2019-03-19T04:23:23.990Z,2.8
2019-03-19T04:31:51.332Z,2.7
2019-03-19T04:36:40.198Z,3.3
2019-03-19T04:41:28.726Z,2.5
2019-03-19T04:46:15.970Z,3
2019-03-19T04:53:08.133Z,2.6
2019-03-19T04:57:54.951Z,3
2019-03-19T05:02:42.080Z,2.8
2019-03-19T05:07:28.946Z,2.4
2019-03-19T05:12:17.086Z,3
2019-03-19T05:17:04.533Z,3.3
2019-03-19T05:21:51.996Z,2.9
2019-03-19T05:26:38.998Z,3.9
2019-03-19T05:31:25.882Z,4.9
2019-03-19T05:36:12.711Z,3.9
2019-03-19T05:40:59.757Z,3.5
2019-03-19T05:45:47.007Z,4
2019-03-19T05:51:52.407Z,3.9
2019-03-19T05:56:40.003Z,3.4
2019-03-19T06:01:27.976Z,4.9
2019-03-19T06:10:59.971Z,3.7
2019-03-19T06:15:46.932Z,4
2019-03-19T06:20:34.023Z,3.5
2019-03-19T06:25:21.802Z,3.2
2019-03-19T06:31:58.496Z,3.7
2019-03-19T06:36:46.091Z,4.3
2019-03-19T06:41:33.127Z,4.2
2019-03-19T06:46:22.295Z,4.2
2019-03-19T06:53:37.847Z,3.8
2019-03-19T06:58:24.665Z,3.5
2019-03-19T07:03:11.727Z,4.4
2019-03-19T07:07:58.753Z,4.6
2019-03-19T07:14:52.723Z,4.6
2019-03-19T07:19:40.788Z,4.5
2019-03-19T07:24:28.037Z,4.8
2019-03-19T07:29:15.188Z,4.4
2019-03-19T07:36:53.877Z,4.3
2019-03-19T07:41:41.794Z,5
2019-03-19T07:46:29.185Z,4.6
2019-03-19T07:51:15.986Z,4.5
2019-03-19T07:58:08.735Z,4
2019-03-19T08:02:55.787Z,4.8
2019-03-19T08:07:43.482Z,6.5
2019-03-19T08:12:30.869Z,4.7
2019-03-19T08:20:42.215Z,3.9
2019-03-19T08:25:29.109Z,4
2019-03-19T08:30:16.395Z,5
2019-03-19T08:35:03.768Z,4.8
2019-03-19T08:41:10.840Z,4.3
2019-03-19T08:45:57.909Z,4.5
2019-03-19T08:50:44.759Z,5.1
2019-03-19T08:55:32.725Z,5.6
2019-03-19T09:00:20.580Z,4.1
2019-03-19T09:05:08.747Z,4.7
2019-03-19T09:09:56.096Z,4.9
2019-03-19T09:14:43.092Z,4
2019-03-19T09:19:29.987Z,4.6
2019-03-19T09:25:04.187Z,3.7
2019-03-19T09:29:51.038Z,4
2019-03-19T09:34:38.429Z,4.7
2019-03-19T09:39:25.969Z,4.6
2019-03-19T09:44:14.800Z,4.2
2019-03-19T09:49:02.206Z,3.8
2019-03-19T09:53:50.590Z,4
2019-03-19T09:59:56.668Z,3.4
2019-03-19T10:04:43.905Z,4.1
2019-03-19T10:09:32.921Z,4
2019-03-19T10:14:19.904Z,3.8
2019-03-19T10:19:07.197Z,3.9
2019-03-19T10:23:54.019Z,4.1
2019-03-19T10:28:41.079Z,4.3
2019-03-19T10:33:28.773Z,4.5
2019-03-19T10:39:51.634Z,3.4
2019-03-19T10:44:39.039Z,3.2
2019-03-19T10:49:26.203Z,3.4
2019-03-19T10:54:12.991Z,3.1
2019-03-19T10:58:59.979Z,3.8
2019-03-19T11:03:47.566Z,4
2019-03-19T11:08:40.468Z,3.5
2019-03-19T11:13:28.288Z,3.2
2019-03-19T11:18:16.602Z,3.9
2019-03-19T11:23:03.669Z,3.8
2019-03-19T11:27:52.576Z,4
2019-03-19T11:32:39.676Z,5
2019-03-19T11:37:27.843Z,3.9
2019-03-19T11:42:15.409Z,3.7
2019-03-19T11:47:03.047Z,4.5
2019-03-19T11:51:49.997Z,3.4
2019-03-19T11:56:36.999Z,3.6
2019-03-19T12:01:24.025Z,3.7
2019-03-19T12:06:11.343Z,3.6
2019-03-19T12:10:58.697Z,3.2
2019-03-19T12:15:46.884Z,3.3
2019-03-19T12:20:33.997Z,3.7
2019-03-19T12:25:20.867Z,3.6
2019-03-19T12:30:08.162Z,3.8
2019-03-19T12:34:55.964Z,3.5
2019-03-19T12:39:43.959Z,3.8
2019-03-19T12:44:31.876Z,3.4
2019-03-19T12:49:19.021Z,3.1
2019-03-19T12:54:06.978Z,3.3
2019-03-19T12:58:54.293Z,3
2019-03-19T13:03:41.390Z,3.5
2019-03-19T13:08:28.492Z,3
2019-03-19T13:13:15.384Z,3.2
2019-03-19T13:18:02.337Z,3
2019-03-19T13:22:49.157Z,3.1
2019-03-19T13:27:37.442Z,2.9
2019-03-19T13:32:24.900Z,3.6
2019-03-19T13:37:11.719Z,2.7
2019-03-19T13:41:58.800Z,3.2
2019-03-19T13:46:45.687Z,3
2019-03-19T13:51:33.022Z,2.8
2019-03-19T13:56:22.543Z,2.7
2019-03-19T14:01:09.776Z,3
2019-03-19T14:05:57.178Z,3.2
2019-03-19T14:10:46.042Z,2.3
2019-03-19T14:15:33.049Z,2.5
2019-03-19T14:20:20.720Z,2.8
2019-03-19T14:25:07.589Z,2.8
2019-03-19T14:29:56.341Z,2.7
2019-03-19T14:34:43.556Z,3.2
2019-03-19T14:39:30.689Z,3
2019-03-19T14:44:17.900Z,2.7
2019-03-19T14:49:05.730Z,8.2
2019-03-19T14:53:52.679Z,2.8
2019-03-19T14:58:41.498Z,2.5
2019-03-19T15:03:28.776Z,1.7
2019-03-19T15:08:15.926Z,2.2
2019-03-19T15:13:02.867Z,2.2
2019-03-19T15:17:49.681Z,1.9
2019-03-19T15:22:36.920Z,1.9
2019-03-19T15:27:23.641Z,2.3
2019-03-19T15:32:10.623Z,5.3
2019-03-19T15:36:57.433Z,5.2
2019-03-19T15:41:44.718Z,4.6
2019-03-19T15:46:47.673Z,6.5
2019-03-19T15:51:35.372Z,6.1
2019-03-19T15:56:24.587Z,3.1
2019-03-19T16:01:12.271Z,33.4
2019-03-19T16:05:59.989Z,6.6
2019-03-19T16:10:47.030Z,5.3
2019-03-19T16:15:35.885Z,3.1
2019-03-19T16:20:23.289Z,3.9
2019-03-19T16:25:42.184Z,3.2
2019-03-19T16:30:29.644Z,3.4
2019-03-19T16:35:16.838Z,3.6
2019-03-19T16:40:05.173Z,3.7
2019-03-19T16:44:52.474Z,3.8
2019-03-19T16:49:40.498Z,4
2019-03-19T16:58:54.177Z,3.1
2019-03-19T17:03:41.174Z,4
2019-03-19T17:08:28.552Z,3.6
2019-03-19T17:13:16.270Z,4.5
2019-03-19T17:18:03.553Z,5.9
2019-03-19T17:22:51.371Z,8.4
2019-03-19T17:27:40.532Z,24.9
2019-03-19T17:32:28.775Z,12.8
2019-03-19T17:39:21.739Z,7.3
2019-03-19T17:44:09.831Z,9.5
2019-03-19T17:48:57.077Z,6.9
2019-03-19T17:53:44.061Z,7
2019-03-19T17:58:31.438Z,8
2019-03-19T18:03:20.114Z,8
2019-03-19T18:08:07.341Z,8.7
2019-03-19T18:13:27.669Z,8
2019-03-19T18:18:15.020Z,8.3
2019-03-19T18:23:02.780Z,12.8
2019-03-19T18:27:50.049Z,29.4
2019-03-19T18:32:37.845Z,23.3
2019-03-19T18:37:25.118Z,22.3
2019-03-19T18:44:50.164Z,23.8
2019-03-19T18:49:37.208Z,20
2019-03-19T18:54:24.214Z,17.9
2019-03-19T18:59:11.432Z,17.4
2019-03-19T19:03:58.197Z,17.4
2019-03-19T19:08:45.372Z,19.5
2019-03-19T19:15:37.785Z,17.5
2019-03-19T19:20:25.681Z,28.6
2019-03-19T19:25:13.007Z,32.2
2019-03-19T19:30:00.362Z,26.6
2019-03-19T19:34:48.388Z,22.9
2019-03-19T19:39:35.720Z,21.5
2019-03-19T19:46:44.124Z,16.4
2019-03-19T19:51:31.387Z,16.4
2019-03-19T19:56:18.440Z,17.5
2019-03-19T20:01:05.785Z,16.2
2019-03-19T20:05:52.827Z,16.9
2019-03-19T20:10:41.153Z,31.7
2019-03-19T20:16:30.858Z,23.4
2019-03-19T20:21:17.965Z,39.8
2019-03-19T20:26:04.895Z,21.6
2019-03-19T20:30:52.693Z,25.7
2019-03-19T20:35:39.689Z,29
2019-03-19T20:45:23.806Z,19.7
2019-03-19T20:50:11.769Z,20.4
2019-03-19T20:54:59.087Z,21.7
2019-03-19T20:59:46.301Z,21.3
2019-03-19T21:04:33.488Z,20.2
2019-03-19T21:09:20.952Z,23.3
2019-03-19T21:15:10.502Z,21.8
2019-03-19T21:19:57.447Z,35.6
2019-03-19T21:24:44.425Z,98.5
2019-03-19T21:29:32.788Z,86.3
2019-03-19T21:34:19.753Z,53.7
2019-03-19T21:39:07.275Z,62.4
2019-03-19T21:44:41.838Z,113.3
2019-03-19T21:49:28.852Z,117.4
2019-03-19T21:54:16.544Z,112.6
2019-03-19T21:59:03.544Z,97.7
2019-03-19T22:04:02.433Z,86.5
2019-03-19T22:08:50.093Z,68.5
2019-03-19T22:14:23.780Z,52.8
2019-03-19T22:19:11.075Z,45.3
2019-03-19T22:23:58.108Z,47.1
2019-03-19T22:28:45.615Z,51.9
2019-03-19T22:33:33.793Z,50.9
2019-03-19T22:38:21.279Z,63.3
2019-03-19T22:45:48.132Z,76
2019-03-19T22:50:34.981Z,87.3
2019-03-19T22:55:28.975Z,77
2019-03-19T23:00:16.940Z,82.9
2019-03-19T23:05:04.331Z,91.7
2019-03-19T23:09:52.870Z,125
2019-03-19T23:15:45.069Z,97.6
2019-03-19T23:20:32.175Z,65.3
2019-03-19T23:25:19.335Z,58
2019-03-19T23:30:06.234Z,64.9
2019-03-19T23:34:53.885Z,64.1
2019-03-19T23:39:41.504Z,62.3
2019-03-19T23:45:30.855Z,55.4
2019-03-19T23:50:19.028Z,49.5
2019-03-19T23:55:06.033Z,54.2
2019-03-19T23:59:52.844Z,51.2
